Time;durP1;ratioP1;P1;durP2;ratioP2;P2;SDS_P1;SDS_P2;PMS_P1;PMS_P2;Temp;Humidity;BMP_temperature;BMP_pressure;BME280_temperature;BME280_humidity;BME280_pressure;Samples;Min_cycle;Max_cycle;Signal;HPM_P1;HPM_P2
2022/03/27 00:00:18;;;;;;;15.00;11.10;;;;;;;;;;5053708;28;20230;-60
2022/03/27 00:02:43;;;;;;;17.02;11.85;;;;;;;;;;5051953;28;20245;-60
2022/03/27 00:05:09;;;;;;;16.20;12.18;;;;;;;;;;5051854;28;20578;-60
2022/03/27 00:07:34;;;;;;;18.50;12.90;;;;;;;;;;5051371;28;20302;-60
2022/03/27 00:10:00;;;;;;;17.10;13.48;;;;;;;;;;5052098;28;20673;-60
2022/03/27 00:12:25;;;;;;;19.75;15.40;;;;;;;;;;5051328;28;20223;-60
2022/03/27 00:14:50;;;;;;;20.00;15.35;;;;;;;;;;5051459;28;20227;-60
2022/03/27 00:17:15;;;;;;;19.45;15.10;;;;;;;;;;5051526;28;20233;-60
2022/03/27 00:19:41;;;;;;;21.70;15.95;;;;;;;;;;5052107;28;20211;-60
2022/03/27 00:22:06;;;;;;;20.45;16.10;;;;;;;;;;5050584;28;20207;-60
2022/03/27 00:24:32;;;;;;;20.52;15.65;;;;;;;;;;5069597;28;20241;-60
2022/03/27 00:26:57;;;;;;;21.33;15.95;;;;;;;;;;5071940;28;20215;-60
2022/03/27 00:29:22;;;;;;;23.45;17.02;;;;;;;;;;5070787;28;20267;-60
2022/03/27 00:31:48;;;;;;;20.73;15.63;;;;;;;;;;5072350;28;20238;-60
2022/03/27 00:34:13;;;;;;;19.95;14.63;;;;;;;;;;5075572;28;20568;-60
2022/03/27 00:36:38;;;;;;;18.17;14.38;;;;;;;;;;5075037;28;20211;-60
2022/03/27 00:39:04;;;;;;;17.90;14.15;;;;;;;;;;5075305;28;20568;-60
2022/03/27 00:41:30;;;;;;;21.40;15.25;;;;;;;;;;5075673;28;20590;-60
2022/03/27 00:43:55;;;;;;;19.13;14.80;;;;;;;;;;5075021;28;20240;-60
2022/03/27 00:46:21;;;;;;;19.70;14.88;;;;;;;;;;5057880;28;20261;-60
2022/03/27 00:48:46;;;;;;;18.98;14.60;;;;;;;;;;5055405;28;20218;-60
2022/03/27 00:51:11;;;;;;;18.23;14.45;;;;;;;;;;5054398;28;20244;-60
2022/03/27 00:53:37;;;;;;;18.85;14.45;;;;;;;;;;5055450;28;20211;-60
2022/03/27 00:56:02;;;;;;;16.10;13.77;;;;;;;;;;5054846;28;20288;-60
2022/03/27 00:58:27;;;;;;;18.27;14.23;;;;;;;;;;5056634;28;20207;-60
2022/03/27 01:00:55;;;;;;;16.75;13.50;;;;;;;;;;5075478;28;20217;-60
2022/03/27 01:03:24;;;;;;;20.75;15.15;;;;;;;;;;5057079;28;20737;-60
2022/03/27 01:05:49;;;;;;;18.55;14.32;;;;;;;;;;5074797;28;20671;-60
2022/03/27 01:08:14;;;;;;;20.27;14.15;;;;;;;;;;5074557;28;20222;-60
2022/03/27 01:10:40;;;;;;;18.10;14.50;;;;;;;;;;5056629;28;20202;-60
2022/03/27 01:13:15;;;;;;;17.77;14.52;;;;;;;;;;5074528;28;20225;-60
2022/03/27 01:15:42;;;;;;;21.33;14.07;;;;;;;;;;5075385;28;20263;-60
2022/03/27 01:18:08;;;;;;;18.50;14.52;;;;;;;;;;5056109;28;20229;-60
2022/03/27 01:20:34;;;;;;;20.02;15.85;;;;;;;;;;5075062;28;20210;-60
2022/03/27 01:22:59;;;;;;;22.55;17.30;;;;;;;;;;5062613;28;20238;-60
2022/03/27 01:25:25;;;;;;;21.95;16.67;;;;;;;;;;5053818;28;20218;-60
2022/03/27 01:27:50;;;;;;;19.15;15.27;;;;;;;;;;5055117;28;20218;-60
2022/03/27 01:30:15;;;;;;;20.00;15.15;;;;;;;;;;5054648;28;20614;-60
2022/03/27 01:32:41;;;;;;;21.17;15.60;;;;;;;;;;5054157;28;20218;-60
2022/03/27 01:35:06;;;;;;;17.63;14.00;;;;;;;;;;5053989;28;20753;-60
2022/03/27 01:37:32;;;;;;;20.73;15.20;;;;;;;;;;5054860;28;20218;-60
2022/03/27 01:39:57;;;;;;;19.60;15.35;;;;;;;;;;5053848;28;20235;-60
2022/03/27 01:42:22;;;;;;;19.27;14.50;;;;;;;;;;5054202;28;20207;-61
2022/03/27 01:44:47;;;;;;;19.02;14.65;;;;;;;;;;5058484;28;20566;-60
2022/03/27 01:47:13;;;;;;;20.92;15.27;;;;;;;;;;5073510;28;20677;-60
2022/03/27 01:49:40;;;;;;;20.63;15.02;;;;;;;;;;5074355;28;20227;-60
2022/03/27 01:52:05;;;;;;;21.95;15.45;;;;;;;;;;5073931;28;20242;-60
2022/03/27 01:54:30;;;;;;;21.23;15.00;;;;;;;;;;5073662;28;20234;-60
2022/03/27 01:56:56;;;;;;;21.90;15.85;;;;;;;;;;5074295;28;20239;-60
2022/03/27 01:59:22;;;;;;;20.80;14.88;;;;;;;;;;5063863;28;20214;-60
2022/03/27 02:01:47;;;;;;;19.70;14.48;;;;;;;;;;5053703;28;20203;-60
2022/03/27 02:04:13;;;;;;;22.23;15.45;;;;;;;;;;5053800;28;20579;-60
2022/03/27 02:06:39;;;;;;;21.33;15.15;;;;;;;;;;5054262;28;20302;-60
2022/03/27 02:09:05;;;;;;;20.67;14.85;;;;;;;;;;5035600;28;20217;-60
2022/03/27 02:11:30;;;;;;;21.50;14.88;;;;;;;;;;5054006;28;20572;-60
2022/03/27 02:13:55;;;;;;;20.38;14.63;;;;;;;;;;5053318;28;20211;-60
2022/03/27 02:16:20;;;;;;;19.52;13.88;;;;;;;;;;5053601;28;20222;-60
2022/03/27 02:18:46;;;;;;;18.73;12.90;;;;;;;;;;5054143;28;20249;-60
2022/03/27 02:21:11;;;;;;;17.00;12.52;;;;;;;;;;5034671;28;20218;-60
2022/03/27 02:23:37;;;;;;;16.45;12.18;;;;;;;;;;5063866;28;20565;-60
2022/03/27 02:26:02;;;;;;;18.75;13.15;;;;;;;;;;5073303;28;20263;-60
2022/03/27 02:28:27;;;;;;;24.52;15.13;;;;;;;;;;5073005;28;20282;-60
2022/03/27 02:30:53;;;;;;;23.58;15.00;;;;;;;;;;5063362;28;20222;-60
2022/03/27 02:33:18;;;;;;;26.33;15.93;;;;;;;;;;5055840;28;20313;-60
2022/03/27 02:35:43;;;;;;;24.88;15.38;;;;;;;;;;5047467;28;20217;-60
2022/03/27 02:38:09;;;;;;;24.70;15.20;;;;;;;;;;5062748;28;20564;-60
2022/03/27 02:40:34;;;;;;;27.67;16.25;;;;;;;;;;5043935;28;20246;-60
2022/03/27 02:43:00;;;;;;;25.95;15.75;;;;;;;;;;5043151;28;20223;-60
2022/03/27 02:45:26;;;;;;;27.95;16.35;;;;;;;;;;5037540;28;20214;-60
2022/03/27 02:47:52;;;;;;;26.90;16.17;;;;;;;;;;5044733;28;20214;-60
2022/03/27 02:50:17;;;;;;;31.05;16.70;;;;;;;;;;5053842;28;20410;-60
2022/03/27 02:52:43;;;;;;;28.50;16.38;;;;;;;;;;5060027;28;20317;-60
2022/03/27 02:55:08;;;;;;;33.17;18.20;;;;;;;;;;5062089;28;20219;-60
2022/03/27 02:57:33;;;;;;;32.95;18.50;;;;;;;;;;5061677;28;20223;-60
2022/03/27 02:59:59;;;;;;;30.30;17.58;;;;;;;;;;5048698;28;20215;-60
2022/03/27 03:02:24;;;;;;;35.33;18.77;;;;;;;;;;5042547;28;20211;-60
2022/03/27 03:04:50;;;;;;;34.33;18.52;;;;;;;;;;5051413;28;20673;-60
2022/03/27 03:07:15;;;;;;;32.70;18.00;;;;;;;;;;5059257;28;20282;-60
2022/03/27 03:09:41;;;;;;;33.15;19.38;;;;;;;;;;5054853;28;20245;-60
2022/03/27 03:12:06;;;;;;;37.25;19.15;;;;;;;;;;5035854;28;20219;-60
2022/03/27 03:14:33;;;;;;;34.03;18.83;;;;;;;;;;5057185;28;20210;-60
2022/03/27 03:16:58;;;;;;;39.00;19.90;;;;;;;;;;5062639;28;20223;-60
2022/03/27 03:19:24;;;;;;;36.75;19.98;;;;;;;;;;5043740;28;20221;-60
2022/03/27 03:21:49;;;;;;;38.80;19.90;;;;;;;;;;5060189;28;20206;-60
2022/03/27 03:24:14;;;;;;;42.22;21.00;;;;;;;;;;5041927;28;20357;-60
2022/03/27 03:26:40;;;;;;;36.72;20.55;;;;;;;;;;5042517;28;20211;-60
2022/03/27 03:29:06;;;;;;;34.13;19.58;;;;;;;;;;5042770;28;20252;-60
2022/03/27 03:31:31;;;;;;;41.05;20.42;;;;;;;;;;5033813;28;20215;-60
2022/03/27 03:33:56;;;;;;;35.10;19.77;;;;;;;;;;5034899;28;20219;-60
2022/03/27 03:36:21;;;;;;;34.33;19.77;;;;;;;;;;5034832;28;20219;-60
2022/03/27 03:38:47;;;;;;;38.47;19.75;;;;;;;;;;5048140;28;20214;-60
2022/03/27 03:41:12;;;;;;;33.70;19.63;;;;;;;;;;5061866;28;20711;-60
2022/03/27 03:43:38;;;;;;;35.92;19.35;;;;;;;;;;5062638;28;20210;-60
2022/03/27 03:46:03;;;;;;;35.13;19.40;;;;;;;;;;5046207;28;20325;-60
2022/03/27 03:48:29;;;;;;;31.77;18.02;;;;;;;;;;5042898;28;20226;-60
2022/03/27 03:50:54;;;;;;;31.65;18.45;;;;;;;;;;5061855;28;21252;-60
2022/03/27 03:53:20;;;;;;;32.20;17.42;;;;;;;;;;5055997;28;20222;-60
2022/03/27 03:55:45;;;;;;;30.65;18.35;;;;;;;;;;5036351;28;20227;-60
2022/03/27 03:58:10;;;;;;;28.73;17.20;;;;;;;;;;5053234;28;20225;-60
2022/03/27 04:00:36;;;;;;;29.90;17.27;;;;;;;;;;5039022;28;20264;-60
2022/03/27 04:03:02;;;;;;;28.52;17.90;;;;;;;;;;5042128;28;20262;-60
2022/03/27 04:05:28;;;;;;;27.08;17.23;;;;;;;;;;5042759;28;20732;-60
2022/03/27 04:07:53;;;;;;;29.65;17.23;;;;;;;;;;5043810;28;20207;-60
2022/03/27 04:10:19;;;;;;;27.85;17.83;;;;;;;;;;5065447;28;20217;-60
2022/03/27 04:12:44;;;;;;;28.48;16.67;;;;;;;;;;5065924;28;20595;-60
2022/03/27 04:15:09;;;;;;;28.45;16.67;;;;;;;;;;5063022;28;20229;-60
2022/03/27 04:17:41;;;;;;;25.40;16.25;;;;;;;;;;5040292;28;20889;-60
2022/03/27 04:20:06;;;;;;;26.35;16.35;;;;;;;;;;5057716;28;20227;-60
2022/03/27 04:22:31;;;;;;;26.33;16.08;;;;;;;;;;5051332;28;20218;-60
2022/03/27 04:24:57;;;;;;;26.27;16.73;;;;;;;;;;5046586;28;20249;-60
2022/03/27 04:27:23;;;;;;;24.80;15.80;;;;;;;;;;5065145;28;20848;-60
2022/03/27 04:29:49;;;;;;;27.75;17.40;;;;;;;;;;5065974;28;20301;-60
2022/03/27 04:32:15;;;;;;;22.83;15.27;;;;;;;;;;5065205;28;20325;-60
2022/03/27 04:34:40;;;;;;;23.58;15.43;;;;;;;;;;5064881;28;20214;-60
2022/03/27 04:37:05;;;;;;;23.30;15.65;;;;;;;;;;5065548;28;20701;-60
2022/03/27 04:39:31;;;;;;;25.45;16.25;;;;;;;;;;5044874;28;20219;-60
2022/03/27 04:41:56;;;;;;;24.48;15.73;;;;;;;;;;5037256;28;20246;-60
2022/03/27 04:44:21;;;;;;;23.83;15.27;;;;;;;;;;5037797;28;20294;-60
2022/03/27 04:46:47;;;;;;;21.30;14.45;;;;;;;;;;5063781;28;21520;-60
2022/03/27 04:49:13;;;;;;;23.30;14.52;;;;;;;;;;5064281;28;20602;-60
2022/03/27 04:51:39;;;;;;;19.30;13.60;;;;;;;;;;5065516;28;20218;-60
2022/03/27 04:54:04;;;;;;;22.27;13.57;;;;;;;;;;5064639;28;20221;-61
2022/03/27 04:56:31;;;;;;;20.70;13.13;;;;;;;;;;5064848;28;20838;-60
2022/03/27 04:58:56;;;;;;;19.63;13.43;;;;;;;;;;5059427;28;20238;-60
2022/03/27 05:01:21;;;;;;;21.02;14.30;;;;;;;;;;5040583;28;20290;-60
2022/03/27 05:03:47;;;;;;;21.20;13.70;;;;;;;;;;5036661;28;20701;-60
2022/03/27 05:06:12;;;;;;;21.08;13.60;;;;;;;;;;5037006;28;20262;-60
2022/03/27 05:08:37;;;;;;;18.23;12.13;;;;;;;;;;5041398;28;20215;-60
2022/03/27 05:11:03;;;;;;;19.23;12.30;;;;;;;;;;5044096;28;20360;-60
2022/03/27 05:13:28;;;;;;;18.05;12.52;;;;;;;;;;5045563;28;20207;-60
2022/03/27 05:15:53;;;;;;;19.05;12.75;;;;;;;;;;5045405;28;20352;-60
2022/03/27 05:18:19;;;;;;;19.17;11.98;;;;;;;;;;5043452;28;20637;-60
2022/03/27 05:20:45;;;;;;;19.42;12.63;;;;;;;;;;5045037;28;20204;-60
2022/03/27 05:23:10;;;;;;;16.75;11.02;;;;;;;;;;5043127;28;20222;-60
2022/03/27 05:25:44;;;;;;;18.15;11.70;;;;;;;;;;5036795;28;20215;-60
2022/03/27 05:28:10;;;;;;;15.52;10.77;;;;;;;;;;5039099;28;20284;-61
2022/03/27 05:30:35;;;;;;;18.50;12.63;;;;;;;;;;5058802;28;20681;-60
2022/03/27 05:33:03;;;;;;;16.42;11.55;;;;;;;;;;5063245;28;20693;-60
2022/03/27 05:35:28;;;;;;;17.95;12.15;;;;;;;;;;5064874;28;20214;-60
2022/03/27 05:37:54;;;;;;;19.42;12.90;;;;;;;;;;5063631;28;20214;-60
2022/03/27 05:40:20;;;;;;;18.90;12.52;;;;;;;;;;5044411;28;20257;-60
2022/03/27 05:42:46;;;;;;;17.92;12.00;;;;;;;;;;5045435;28;20690;-60
2022/03/27 05:45:11;;;;;;;20.58;12.75;;;;;;;;;;5043197;28;20693;-60
2022/03/27 05:47:37;;;;;;;18.33;12.18;;;;;;;;;;5038752;28;20210;-60
2022/03/27 05:50:03;;;;;;;18.00;12.45;;;;;;;;;;5050239;28;20211;-62
2022/03/27 05:52:28;;;;;;;18.45;12.07;;;;;;;;;;5055552;28;20303;-61
2022/03/27 05:54:53;;;;;;;20.23;13.10;;;;;;;;;;5062521;28;20509;-61
2022/03/27 05:57:19;;;;;;;21.05;13.32;;;;;;;;;;5063868;28;20730;-59
2022/03/27 05:59:45;;;;;;;20.95;13.13;;;;;;;;;;5050687;28;20678;-60
2022/03/27 06:02:10;;;;;;;20.05;13.00;;;;;;;;;;5045171;28;20222;-59
2022/03/27 06:04:36;;;;;;;20.73;13.95;;;;;;;;;;5056135;28;20261;-58
2022/03/27 06:07:01;;;;;;;21.58;14.10;;;;;;;;;;5043372;28;20709;-58
2022/03/27 06:09:26;;;;;;;21.67;13.98;;;;;;;;;;5039772;28;20211;-59
2022/03/27 06:11:51;;;;;;;25.20;15.13;;;;;;;;;;5036028;28;20471;-58
2022/03/27 06:14:17;;;;;;;26.92;15.65;;;;;;;;;;5035481;28;20220;-58
2022/03/27 06:16:42;;;;;;;26.70;14.85;;;;;;;;;;5047094;28;20249;-59
2022/03/27 06:19:07;;;;;;;29.77;16.40;;;;;;;;;;5052428;28;20643;-59
2022/03/27 06:21:32;;;;;;;26.53;16.13;;;;;;;;;;5053667;28;20211;-58
2022/03/27 06:23:58;;;;;;;27.77;16.17;;;;;;;;;;5061171;28;20584;-58
2022/03/27 06:26:23;;;;;;;31.85;17.40;;;;;;;;;;5053185;28;20207;-58
2022/03/27 06:28:48;;;;;;;29.52;17.17;;;;;;;;;;5053107;28;20662;-58
2022/03/27 06:31:13;;;;;;;30.10;16.60;;;;;;;;;;5052903;28;20310;-58
2022/03/27 06:33:39;;;;;;;29.77;16.45;;;;;;;;;;5053924;28;20584;-58
2022/03/27 06:36:04;;;;;;;28.38;16.45;;;;;;;;;;5052524;28;20211;-58
2022/03/27 06:38:30;;;;;;;26.05;15.75;;;;;;;;;;5053717;28;20203;-59
2022/03/27 06:40:55;;;;;;;30.33;16.83;;;;;;;;;;5053394;28;20659;-59
2022/03/27 06:43:21;;;;;;;28.77;15.48;;;;;;;;;;5052351;28;20235;-59
2022/03/27 06:45:46;;;;;;;29.98;16.63;;;;;;;;;;5065872;28;20211;-60
2022/03/27 06:48:11;;;;;;;26.80;15.48;;;;;;;;;;5072157;28;20222;-60
2022/03/27 06:50:37;;;;;;;27.92;15.60;;;;;;;;;;5073250;28;20210;-60
2022/03/27 06:53:02;;;;;;;28.65;15.50;;;;;;;;;;5072976;28;20233;-60
2022/03/27 06:55:28;;;;;;;30.00;16.10;;;;;;;;;;5060797;28;20295;-59
2022/03/27 06:57:53;;;;;;;27.20;15.73;;;;;;;;;;5063783;28;20237;-60
2022/03/27 07:03:03;;;;;;;30.45;16.75;;;;;;;;;;5061157;28;20269;-68
2022/03/27 07:05:30;;;;;;;31.15;16.85;;;;;;;;;;5054103;28;20241;-69
2022/03/27 07:07:56;;;;;;;28.73;15.25;;;;;;;;;;5053166;28;20298;-69
2022/03/27 07:10:22;;;;;;;30.67;15.90;;;;;;;;;;5051862;28;20346;-72
2022/03/27 07:12:48;;;;;;;29.80;16.08;;;;;;;;;;5052706;28;20264;-68
2022/03/27 07:15:13;;;;;;;30.40;16.77;;;;;;;;;;5052728;28;20221;-72
2022/03/27 07:17:42;;;;;;;29.90;16.27;;;;;;;;;;5064974;28;20211;-60
2022/03/27 07:20:08;;;;;;;31.17;16.92;;;;;;;;;;5052250;28;20584;-61
2022/03/27 07:22:33;;;;;;;29.60;17.00;;;;;;;;;;5057718;28;20211;-60
2022/03/27 07:24:58;;;;;;;31.53;17.40;;;;;;;;;;5064643;28;20222;-61
2022/03/27 07:27:23;;;;;;;31.50;16.52;;;;;;;;;;5065593;28;20260;-61
2022/03/27 07:29:49;;;;;;;31.73;16.98;;;;;;;;;;5069568;28;20210;-61
2022/03/27 07:32:15;;;;;;;28.70;16.08;;;;;;;;;;5069360;28;20230;-61
2022/03/27 07:34:40;;;;;;;31.55;16.17;;;;;;;;;;5070668;28;20263;-61
2022/03/27 07:37:06;;;;;;;27.27;16.48;;;;;;;;;;5069871;28;20206;-61
2022/03/27 07:39:31;;;;;;;33.05;16.73;;;;;;;;;;5069972;28;20245;-61
2022/03/27 07:41:56;;;;;;;28.33;16.02;;;;;;;;;;5069602;28;20214;-61
2022/03/27 07:44:22;;;;;;;29.38;16.33;;;;;;;;;;5068101;28;20243;-61
2022/03/27 07:46:48;;;;;;;27.92;16.17;;;;;;;;;;5050508;28;20639;-61
2022/03/27 07:49:13;;;;;;;25.77;15.40;;;;;;;;;;5049850;28;20749;-61
2022/03/27 07:51:39;;;;;;;29.65;16.92;;;;;;;;;;5049570;28;20405;-61
2022/03/27 07:54:04;;;;;;;28.42;16.33;;;;;;;;;;5049968;28;20222;-61
2022/03/27 07:56:30;;;;;;;24.10;15.13;;;;;;;;;;5049900;28;20227;-61
2022/03/27 07:58:56;;;;;;;27.50;15.63;;;;;;;;;;5055926;28;20335;-61
2022/03/27 08:01:22;;;;;;;24.25;14.77;;;;;;;;;;5069816;28;20214;-61
2022/03/27 08:03:48;;;;;;;25.08;14.73;;;;;;;;;;5070475;28;20691;-61
2022/03/27 08:06:13;;;;;;;24.10;15.65;;;;;;;;;;5068921;28;20226;-61
2022/03/27 08:08:38;;;;;;;23.58;15.38;;;;;;;;;;5070360;28;20221;-61
2022/03/27 08:11:04;;;;;;;23.30;14.90;;;;;;;;;;5069815;28;20210;-61
2022/03/27 08:13:29;;;;;;;25.83;14.20;;;;;;;;;;5069308;28;20770;-61
2022/03/27 08:15:54;;;;;;;25.42;15.85;;;;;;;;;;5070193;28;20214;-61
2022/03/27 08:18:20;;;;;;;23.45;15.00;;;;;;;;;;5069627;28;20253;-61
2022/03/27 08:20:45;;;;;;;22.38;14.20;;;;;;;;;;5069401;28;20210;-61
2022/03/27 08:23:10;;;;;;;24.52;15.68;;;;;;;;;;5069538;28;20707;-61
2022/03/27 08:28:20;;;;;;;23.02;14.57;;;;;;;;;;5056591;28;20210;-61
2022/03/27 08:30:45;;;;;;;23.88;14.63;;;;;;;;;;5050256;28;20207;-61
2022/03/27 08:33:11;;;;;;;26.13;15.25;;;;;;;;;;5049409;28;20586;-61
2022/03/27 08:35:41;;;;;;;23.00;14.05;;;;;;;;;;5049510;28;20199;-61
2022/03/27 08:38:06;;;;;;;23.20;14.48;;;;;;;;;;5049258;28;20442;-61
2022/03/27 08:40:32;;;;;;;22.35;14.20;;;;;;;;;;5050251;28;20302;-61
2022/03/27 08:42:57;;;;;;;22.55;15.15;;;;;;;;;;5048950;28;20677;-61
2022/03/27 08:45:22;;;;;;;21.85;13.45;;;;;;;;;;5058778;28;20199;-61
2022/03/27 08:47:48;;;;;;;22.33;14.80;;;;;;;;;;5069200;28;20230;-61
2022/03/27 08:50:26;;;;;;;21.80;14.05;;;;;;;;;;5069375;28;20371;-61
2022/03/27 08:52:53;;;;;;;22.77;14.05;;;;;;;;;;5070325;28;20222;-61
2022/03/27 08:55:19;;;;;;;23.95;14.52;;;;;;;;;;5054562;28;20225;-61
2022/03/27 08:57:50;;;;;;;20.38;14.05;;;;;;;;;;5073170;28;20210;-61
2022/03/27 09:00:18;;;;;;;20.98;14.50;;;;;;;;;;5055721;28;20302;-61
2022/03/27 09:02:45;;;;;;;20.65;13.80;;;;;;;;;;5034996;28;20207;-61
2022/03/27 09:05:10;;;;;;;21.60;14.05;;;;;;;;;;5053090;28;20251;-61
2022/03/27 09:07:35;;;;;;;20.38;13.38;;;;;;;;;;5035423;28;20677;-61
2022/03/27 09:10:03;;;;;;;23.30;14.65;;;;;;;;;;5052141;28;20210;-61
2022/03/27 09:12:29;;;;;;;26.13;14.38;;;;;;;;;;5053306;28;20250;-61
2022/03/27 09:14:54;;;;;;;21.25;13.82;;;;;;;;;;5035289;28;20573;-61
2022/03/27 09:17:19;;;;;;;22.65;14.48;;;;;;;;;;5052092;28;21240;-61
2022/03/27 09:19:46;;;;;;;19.10;13.73;;;;;;;;;;5053053;28;20539;-61
2022/03/27 09:22:13;;;;;;;22.75;14.00;;;;;;;;;;5052501;28;20670;-61
2022/03/27 09:24:38;;;;;;;20.50;13.52;;;;;;;;;;5052299;28;20203;-61
2022/03/27 09:27:05;;;;;;;21.67;15.13;;;;;;;;;;5052659;28;20268;-61
2022/03/27 09:29:30;;;;;;;23.40;14.55;;;;;;;;;;5069171;28;20210;-61
2022/03/27 09:31:56;;;;;;;19.83;13.98;;;;;;;;;;5064833;28;20239;-61
2022/03/27 09:34:21;;;;;;;22.63;13.95;;;;;;;;;;5061287;28;20219;-61
2022/03/27 09:36:46;;;;;;;20.05;14.13;;;;;;;;;;5043506;28;20211;-61
2022/03/27 09:39:16;;;;;;;23.08;14.70;;;;;;;;;;5051233;28;20219;-61
2022/03/27 09:41:44;;;;;;;22.75;14.23;;;;;;;;;;5052762;28;20230;-61
2022/03/27 09:44:16;;;;;;;21.80;14.85;;;;;;;;;;5051458;28;20211;-62
2022/03/27 09:46:48;;;;;;;22.40;13.75;;;;;;;;;;5052478;28;20211;-61
2022/03/27 09:49:14;;;;;;;20.42;13.55;;;;;;;;;;5052041;28;20211;-61
2022/03/27 09:51:50;;;;;;;19.98;13.27;;;;;;;;;;5051727;28;20221;-61
2022/03/27 09:54:15;;;;;;;22.02;14.48;;;;;;;;;;5051697;28;20355;-61
2022/03/27 09:56:40;;;;;;;20.25;13.20;;;;;;;;;;5052253;28;20302;-61
2022/03/27 09:59:05;;;;;;;18.80;12.88;;;;;;;;;;5058454;28;20688;-61
2022/03/27 10:01:31;;;;;;;20.00;12.48;;;;;;;;;;5072039;28;20294;-61
2022/03/27 10:04:03;;;;;;;19.23;12.63;;;;;;;;;;5072327;28;20206;-61
2022/03/27 10:06:36;;;;;;;17.60;11.95;;;;;;;;;;5070522;28;20218;-61
2022/03/27 10:09:02;;;;;;;21.42;13.07;;;;;;;;;;5071662;28;20691;-62
2022/03/27 10:11:27;;;;;;;18.50;11.65;;;;;;;;;;5071967;28;20226;-61
2022/03/27 10:13:53;;;;;;;18.60;11.73;;;;;;;;;;5071729;28;20589;-61
2022/03/27 10:16:23;;;;;;;19.70;12.38;;;;;;;;;;5070905;28;20251;-61
2022/03/27 10:18:49;;;;;;;19.48;11.48;;;;;;;;;;5054338;28;20282;-61
2022/03/27 10:21:15;;;;;;;17.02;11.07;;;;;;;;;;5052715;28;20211;-61
2022/03/27 10:23:40;;;;;;;18.48;11.50;;;;;;;;;;5053838;28;20210;-61
2022/03/27 10:26:06;;;;;;;17.20;11.70;;;;;;;;;;5052906;28;20269;-61
2022/03/27 10:28:33;;;;;;;17.92;11.18;;;;;;;;;;5057862;28;20215;-61
2022/03/27 10:30:59;;;;;;;14.93;10.00;;;;;;;;;;5033345;28;20222;-61
2022/03/27 10:33:26;;;;;;;16.23;10.45;;;;;;;;;;5049742;28;20633;-61
2022/03/27 10:36:06;;;;;;;16.05;10.35;;;;;;;;;;5051194;28;20610;-61
2022/03/27 10:38:50;;;;;;;15.48;9.68;;;;;;;;;;5051507;28;20234;-61
2022/03/27 10:41:25;;;;;;;13.88;9.35;;;;;;;;;;5050305;28;20219;-61
2022/03/27 10:43:54;;;;;;;14.82;9.90;;;;;;;;;;5033722;28;20217;-61
2022/03/27 10:46:20;;;;;;;14.75;9.13;;;;;;;;;;5050015;28;20214;-61
2022/03/27 10:48:46;;;;;;;14.35;9.02;;;;;;;;;;5070691;28;20198;-61
2022/03/27 10:51:31;;;;;;;15.32;9.13;;;;;;;;;;5070580;28;20234;-61
2022/03/27 10:54:02;;;;;;;13.13;8.48;;;;;;;;;;5071295;28;20704;-61
2022/03/27 10:56:34;;;;;;;16.23;8.85;;;;;;;;;;5069707;28;20564;-61
2022/03/27 10:59:10;;;;;;;16.60;9.15;;;;;;;;;;5064460;28;20211;-61
2022/03/27 11:01:36;;;;;;;14.27;8.60;;;;;;;;;;5049754;28;20221;-61
2022/03/27 11:04:04;;;;;;;12.10;7.85;;;;;;;;;;5050651;28;20234;-60
2022/03/27 11:06:31;;;;;;;12.40;8.40;;;;;;;;;;5050870;28;20215;-61
2022/03/27 11:08:58;;;;;;;12.23;7.38;;;;;;;;;;5050337;28;20214;-61
2022/03/27 11:11:33;;;;;;;11.57;7.20;;;;;;;;;;5050202;28;20737;-61
2022/03/27 11:13:59;;;;;;;18.17;8.68;;;;;;;;;;5050693;28;20264;-61
2022/03/27 11:16:24;;;;;;;14.75;8.35;;;;;;;;;;5048943;28;20211;-61
2022/03/27 11:18:49;;;;;;;13.80;7.38;;;;;;;;;;5050579;28;20707;-61
2022/03/27 11:21:27;;;;;;;11.18;6.50;;;;;;;;;;5050372;28;20718;-61
2022/03/27 11:23:52;;;;;;;13.07;7.60;;;;;;;;;;5049992;28;20215;-61
2022/03/27 11:26:19;;;;;;;13.40;7.82;;;;;;;;;;5032197;28;20670;-61
2022/03/27 11:28:45;;;;;;;11.55;7.18;;;;;;;;;;5060474;28;20668;-61
2022/03/27 11:31:10;;;;;;;12.48;7.53;;;;;;;;;;5069149;28;20210;-60
2022/03/27 11:33:37;;;;;;;12.05;6.93;;;;;;;;;;5070531;28;20556;-61
2022/03/27 11:36:13;;;;;;;12.77;7.35;;;;;;;;;;5070149;28;20673;-61
2022/03/27 11:38:39;;;;;;;12.90;7.30;;;;;;;;;;5069676;28;20688;-61
2022/03/27 11:41:21;;;;;;;14.82;8.38;;;;;;;;;;5069966;28;20297;-61
2022/03/27 11:43:46;;;;;;;16.58;7.13;;;;;;;;;;5069558;28;20769;-61
2022/03/27 11:46:19;;;;;;;16.20;7.95;;;;;;;;;;5053788;28;20238;-61
2022/03/27 11:48:52;;;;;;;13.32;7.47;;;;;;;;;;5050224;28;20203;-60
2022/03/27 11:51:17;;;;;;;15.80;7.18;;;;;;;;;;5049186;28;20215;-61
2022/03/27 11:53:43;;;;;;;14.10;8.02;;;;;;;;;;5050274;28;20590;-61
2022/03/27 11:56:08;;;;;;;13.57;7.20;;;;;;;;;;5049536;28;20235;-61
2022/03/27 11:58:34;;;;;;;16.67;7.65;;;;;;;;;;5034592;28;20740;-61
2022/03/27 12:01:03;;;;;;;12.68;7.40;;;;;;;;;;5070254;28;20313;-61
2022/03/27 12:03:29;;;;;;;12.98;6.97;;;;;;;;;;5069788;28;20207;-61
2022/03/27 12:05:54;;;;;;;13.90;7.28;;;;;;;;;;5069583;28;20533;-60
2022/03/27 12:08:19;;;;;;;12.38;6.55;;;;;;;;;;5051553;28;20606;-61
2022/03/27 12:10:47;;;;;;;15.68;6.95;;;;;;;;;;5069934;28;20213;-61
2022/03/27 12:13:14;;;;;;;14.02;7.93;;;;;;;;;;5068728;28;20218;-61
2022/03/27 12:15:41;;;;;;;14.15;8.05;;;;;;;;;;5070225;28;20229;-61
2022/03/27 12:18:06;;;;;;;12.70;7.43;;;;;;;;;;5070887;28;20672;-60
2022/03/27 12:20:39;;;;;;;13.02;7.25;;;;;;;;;;5071266;28;20206;-72
2022/03/27 12:23:05;;;;;;;14.68;7.50;;;;;;;;;;5071587;28;20221;-59
2022/03/27 12:25:30;;;;;;;16.00;8.70;;;;;;;;;;5053694;28;20210;-60
2022/03/27 12:30:43;;;;;;;17.17;8.73;;;;;;;;;;5055803;28;20214;-60
2022/03/27 12:33:08;;;;;;;14.55;8.70;;;;;;;;;;5054409;28;20222;-59
2022/03/27 12:35:33;;;;;;;16.40;7.95;;;;;;;;;;5036624;28;20253;-60
2022/03/27 12:37:59;;;;;;;14.15;8.35;;;;;;;;;;5053602;28;20264;-60
2022/03/27 12:40:25;;;;;;;15.13;8.40;;;;;;;;;;5052443;28;20210;-60
2022/03/27 12:42:52;;;;;;;14.15;8.88;;;;;;;;;;5053636;28;20306;-60
2022/03/27 12:45:26;;;;;;;16.58;9.15;;;;;;;;;;5061709;28;20640;-60
2022/03/27 12:47:58;;;;;;;15.63;8.13;;;;;;;;;;5072725;28;20213;-60
2022/03/27 12:50:32;;;;;;;14.00;7.65;;;;;;;;;;5073017;28;20203;-60
2022/03/27 12:52:59;;;;;;;14.90;8.48;;;;;;;;;;5073400;28;20352;-60
2022/03/27 12:55:26;;;;;;;15.52;8.02;;;;;;;;;;5072191;28;20212;-60
2022/03/27 12:57:53;;;;;;;17.67;8.50;;;;;;;;;;5073399;28;20275;-60
2022/03/27 13:00:19;;;;;;;16.10;8.05;;;;;;;;;;5055294;28;20213;-60
2022/03/27 13:02:44;;;;;;;15.40;8.00;;;;;;;;;;5052607;28;20203;-59
2022/03/27 13:05:09;;;;;;;16.52;7.70;;;;;;;;;;5052643;28;20737;-60
2022/03/27 13:07:51;;;;;;;12.90;7.47;;;;;;;;;;5053162;28;20211;-60
2022/03/27 13:10:17;;;;;;;16.33;8.35;;;;;;;;;;5052471;28;20218;-60
2022/03/27 13:12:42;;;;;;;12.82;7.18;;;;;;;;;;5053029;28;20215;-60
2022/03/27 13:15:07;;;;;;;13.32;6.85;;;;;;;;;;5051688;28;20341;-60
2022/03/27 13:17:33;;;;;;;18.27;7.63;;;;;;;;;;5052983;28;20286;-60
2022/03/27 13:19:58;;;;;;;14.80;7.32;;;;;;;;;;5053657;28;20211;-60
2022/03/27 13:22:24;;;;;;;14.57;7.38;;;;;;;;;;5051870;28;20294;-60
2022/03/27 13:24:49;;;;;;;11.30;6.75;;;;;;;;;;5052962;28;20207;-59
2022/03/27 13:27:14;;;;;;;17.65;8.02;;;;;;;;;;5052429;28;20215;-60
2022/03/27 13:29:40;;;;;;;16.08;7.88;;;;;;;;;;5069668;28;20263;-60
2022/03/27 13:32:07;;;;;;;14.52;7.90;;;;;;;;;;5072266;28;20225;-60
2022/03/27 13:34:32;;;;;;;13.63;7.60;;;;;;;;;;5072736;28;20307;-60
2022/03/27 13:36:58;;;;;;;16.27;7.50;;;;;;;;;;5072073;28;20287;-60
2022/03/27 13:39:23;;;;;;;15.85;7.38;;;;;;;;;;5071373;28;20211;-60
2022/03/27 13:44:33;;;;;;;15.20;7.40;;;;;;;;;;5069123;28;20214;-60
2022/03/27 13:47:00;;;;;;;16.08;7.40;;;;;;;;;;5052440;28;20215;-59
2022/03/27 13:49:25;;;;;;;16.38;7.78;;;;;;;;;;5051851;28;20211;-60
2022/03/27 13:51:51;;;;;;;14.93;7.38;;;;;;;;;;5051572;28;20684;-60
2022/03/27 13:54:16;;;;;;;14.32;6.93;;;;;;;;;;5051977;28;20219;-60
2022/03/27 13:56:41;;;;;;;17.08;7.15;;;;;;;;;;5052239;28;20824;-60
2022/03/27 13:59:07;;;;;;;16.33;7.40;;;;;;;;;;5058708;28;20656;-60
2022/03/27 14:01:36;;;;;;;13.85;6.63;;;;;;;;;;5072322;28;20683;-60
2022/03/27 14:04:02;;;;;;;14.57;6.18;;;;;;;;;;5071726;28;20295;-60
2022/03/27 14:06:27;;;;;;;14.13;5.78;;;;;;;;;;5071310;28;20664;-60
2022/03/27 14:08:52;;;;;;;14.45;6.85;;;;;;;;;;5072283;28;20214;-59
2022/03/27 14:11:18;;;;;;;15.32;6.50;;;;;;;;;;5070772;28;20720;-60
2022/03/27 14:13:43;;;;;;;13.65;6.45;;;;;;;;;;5071902;28;20218;-60
2022/03/27 14:16:08;;;;;;;16.25;6.80;;;;;;;;;;5071501;28;20210;-60
2022/03/27 14:18:33;;;;;;;15.60;6.93;;;;;;;;;;5071335;28;20277;-59
2022/03/27 14:20:59;;;;;;;15.93;6.63;;;;;;;;;;5071710;28;20210;-60
2022/03/27 14:23:24;;;;;;;13.02;5.47;;;;;;;;;;5071393;28;20199;-60
2022/03/27 14:25:49;;;;;;;14.38;5.65;;;;;;;;;;5071147;28;20770;-60